createdAt,value
2019-06-20T00:00:57.971Z,19.50
2019-06-20T00:03:27.848Z,19.50
2019-06-20T00:05:57.581Z,19.50
2019-06-20T00:08:27.476Z,19.50
2019-06-20T00:10:57.208Z,19.40
2019-06-20T00:13:27.229Z,19.40
2019-06-20T00:15:57.155Z,19.40
2019-06-20T00:18:26.827Z,19.40
2019-06-20T00:20:56.823Z,19.40
2019-06-20T00:23:26.449Z,19.30
2019-06-20T00:25:56.437Z,19.20
2019-06-20T00:28:26.137Z,19.10
2019-06-20T00:30:55.875Z,19.10
2019-06-20T00:33:25.862Z,19.00
2019-06-20T00:35:56.161Z,19.00
2019-06-20T00:38:26.151Z,19.00
2019-06-20T00:40:55.892Z,19.10
2019-06-20T00:43:25.896Z,19.10
2019-06-20T00:45:55.679Z,19.10
2019-06-20T00:48:25.422Z,19.00
2019-06-20T00:50:55.154Z,19.00
2019-06-20T00:53:24.820Z,19.00
2019-06-20T00:55:54.688Z,19.10
2019-06-20T00:58:24.345Z,19.20
2019-06-20T01:00:54.382Z,19.20
2019-06-20T01:03:24.394Z,19.20
2019-06-20T01:05:54.105Z,19.30
2019-06-20T01:08:24.087Z,19.30
2019-06-20T01:10:53.888Z,19.20
2019-06-20T01:13:32.961Z,19.20
2019-06-20T01:15:55.225Z,19.30
2019-06-20T01:18:24.865Z,19.20
2019-06-20T01:20:54.918Z,19.30
2019-06-20T01:23:24.592Z,19.20
2019-06-20T01:25:54.301Z,19.20
2019-06-20T01:28:24.270Z,19.10
2019-06-20T01:30:54.457Z,19.00
2019-06-20T01:33:24.725Z,18.90
2019-06-20T01:35:54.822Z,18.80
2019-06-20T01:38:24.445Z,18.90
2019-06-20T01:40:54.125Z,18.90
2019-06-20T01:43:23.757Z,18.80
2019-06-20T01:45:53.665Z,18.60
2019-06-20T01:48:23.596Z,18.40
2019-06-20T01:50:53.306Z,18.30
2019-06-20T01:53:22.980Z,18.30
2019-06-20T01:55:52.694Z,18.30
2019-06-20T01:58:22.625Z,18.30
2019-06-20T02:00:52.657Z,18.30
2019-06-20T02:03:22.378Z,18.30
2019-06-20T02:05:52.082Z,18.40
2019-06-20T02:08:21.754Z,18.40
2019-06-20T02:10:51.464Z,18.40
2019-06-20T02:13:21.197Z,18.30
2019-06-20T02:15:50.911Z,18.20
2019-06-20T02:18:20.816Z,18.10
2019-06-20T02:20:53.594Z,18.10
2019-06-20T02:23:23.321Z,18.10
2019-06-20T02:25:53.376Z,18.00
2019-06-20T02:28:23.551Z,18.00
2019-06-20T02:30:53.337Z,17.90
2019-06-20T02:33:23.263Z,18.10
2019-06-20T02:35:52.910Z,18.20
2019-06-20T02:38:22.652Z,18.20
2019-06-20T02:40:52.422Z,18.10
2019-06-20T02:43:22.820Z,18.20
2019-06-20T02:45:52.850Z,18.20
2019-06-20T02:48:22.931Z,18.30
2019-06-20T02:50:53.048Z,18.40
2019-06-20T02:53:22.702Z,18.30
2019-06-20T02:55:52.401Z,18.30
2019-06-20T02:58:22.308Z,18.20
2019-06-20T03:00:58.913Z,18.10
2019-06-20T03:03:29.336Z,18.10
2019-06-20T03:05:59.382Z,18.00
2019-06-20T03:08:29.518Z,18.00
2019-06-20T03:10:59.230Z,18.00
2019-06-20T03:13:29.154Z,18.00
2019-06-20T03:15:58.869Z,18.00
2019-06-20T03:18:28.521Z,18.10
2019-06-20T03:20:58.344Z,18.30
2019-06-20T03:23:29.656Z,18.30
2019-06-20T03:25:59.373Z,18.30
2019-06-20T03:28:29.180Z,18.30
2019-06-20T03:30:58.933Z,18.30
2019-06-20T03:33:29.035Z,18.20
2019-06-20T03:35:58.836Z,18.20
2019-06-20T03:38:28.571Z,18.10
2019-06-20T03:40:58.402Z,18.00
2019-06-20T03:43:28.120Z,18.00
2019-06-20T03:45:57.900Z,17.90
2019-06-20T03:48:27.537Z,18.00
2019-06-20T03:50:57.201Z,18.00
2019-06-20T03:53:27.314Z,18.00
2019-06-20T03:55:57.041Z,18.20
2019-06-20T03:58:26.703Z,18.30
2019-06-20T04:00:56.416Z,18.40
2019-06-20T04:03:26.064Z,18.50
2019-06-20T04:05:55.918Z,18.70
2019-06-20T04:08:25.559Z,19.00
2019-06-20T04:10:55.275Z,19.30
2019-06-20T04:13:25.243Z,19.50
2019-06-20T04:15:55.145Z,19.70
2019-06-20T04:18:24.785Z,20.00
2019-06-20T04:20:54.604Z,20.20
2019-06-20T04:23:24.581Z,20.20
2019-06-20T04:25:54.461Z,20.30
2019-06-20T04:28:24.353Z,20.40
2019-06-20T04:30:54.025Z,20.40
2019-06-20T04:33:24.716Z,20.50
2019-06-20T04:35:56.037Z,20.60
2019-06-20T04:38:25.673Z,20.70
2019-06-20T04:40:55.385Z,20.80
2019-06-20T04:43:25.476Z,20.90
2019-06-20T04:46:15.059Z,21.00
2019-06-20T04:48:46.518Z,21.00
2019-06-20T04:51:17.199Z,20.90
2019-06-20T04:53:51.308Z,21.00
2019-06-20T04:56:22.395Z,21.10
2019-06-20T04:58:52.094Z,21.30
2019-06-20T05:01:22.222Z,21.60
2019-06-20T05:03:53.523Z,21.80
2019-06-20T05:06:23.298Z,22.00
2019-06-20T05:08:53.011Z,22.10
2019-06-20T05:11:22.817Z,22.30
2019-06-20T05:13:52.521Z,22.40
2019-06-20T05:16:22.171Z,22.60
2019-06-20T05:18:52.139Z,22.50
2019-06-20T05:21:22.527Z,22.50
2019-06-20T05:23:52.345Z,22.40
2019-06-20T05:26:22.086Z,22.10
2019-06-20T05:28:52.583Z,21.90
2019-06-20T05:31:22.306Z,21.80
2019-06-20T05:33:52.132Z,21.90
2019-06-20T05:36:22.264Z,22.30
2019-06-20T05:38:52.344Z,22.70
2019-06-20T05:41:22.246Z,22.90
2019-06-20T05:43:56.084Z,23.10
2019-06-20T05:46:26.217Z,23.10
2019-06-20T05:48:59.808Z,23.20
2019-06-20T05:51:31.809Z,23.10
2019-06-20T05:54:02.007Z,22.80
2019-06-20T05:56:37.304Z,22.90
2019-06-20T05:59:08.189Z,23.20
2019-06-20T06:01:50.466Z,23.50
2019-06-20T06:04:26.411Z,24.00
2019-06-20T06:07:24.527Z,24.30
2019-06-20T06:10:09.979Z,24.80
2019-06-20T06:12:48.943Z,25.30
2019-06-20T06:15:32.280Z,25.90
2019-06-20T06:17:59.787Z,26.10
2019-06-20T06:20:32.396Z,26.50
2019-06-20T06:23:04.287Z,26.30
2019-06-20T06:25:47.402Z,25.90
2019-06-20T06:28:21.074Z,25.50
2019-06-20T06:30:50.817Z,24.30
2019-06-20T06:33:20.500Z,23.60
2019-06-20T06:35:50.212Z,24.00
2019-06-20T06:38:21.784Z,24.70
2019-06-20T06:40:51.614Z,25.60
2019-06-20T06:43:21.654Z,25.90
2019-06-20T06:45:51.411Z,26.40
2019-06-20T06:48:21.116Z,25.70
2019-06-20T06:50:51.136Z,25.80
2019-06-20T06:53:20.948Z,25.00
2019-06-20T06:55:50.976Z,23.80
2019-06-20T06:58:20.666Z,23.50
2019-06-20T07:00:50.866Z,23.70
2019-06-20T07:03:20.503Z,24.30
2019-06-20T07:05:50.229Z,24.30
2019-06-20T07:08:19.871Z,24.00
2019-06-20T07:10:49.588Z,23.80
2019-06-20T07:13:19.235Z,23.60
2019-06-20T07:15:49.470Z,23.40
2019-06-20T07:18:19.605Z,23.60
2019-06-20T07:20:49.457Z,23.90
2019-06-20T07:23:20.712Z,24.20
2019-06-20T07:25:50.444Z,24.10
2019-06-20T07:28:20.345Z,23.80
2019-06-20T07:30:50.725Z,23.70
2019-06-20T07:33:20.685Z,24.30
2019-06-20T07:35:50.517Z,24.40
2019-06-20T07:38:20.325Z,24.90
2019-06-20T07:40:50.237Z,25.10
2019-06-20T07:43:20.048Z,24.90
2019-06-20T07:46:02.215Z,24.40
2019-06-20T07:48:21.440Z,23.60
2019-06-20T07:50:51.424Z,23.30
2019-06-20T07:53:21.142Z,23.20
2019-06-20T07:55:51.297Z,23.00
2019-06-20T07:58:22.360Z,23.00
2019-06-20T08:00:52.091Z,23.20
2019-06-20T08:03:21.799Z,23.70
2019-06-20T08:05:51.616Z,24.70
2019-06-20T08:08:21.374Z,25.10
2019-06-20T08:10:51.266Z,25.50
2019-06-20T08:13:21.029Z,25.30
2019-06-20T08:15:50.855Z,24.60
2019-06-20T08:18:20.587Z,24.50
2019-06-20T08:20:50.399Z,24.90
2019-06-20T08:23:20.146Z,25.20
2019-06-20T08:25:50.136Z,25.60
2019-06-20T08:28:19.968Z,25.50
2019-06-20T08:30:49.793Z,25.50
2019-06-20T08:33:19.637Z,25.10
2019-06-20T08:35:49.397Z,24.50
2019-06-20T08:38:19.078Z,24.50
2019-06-20T08:40:48.865Z,24.80
2019-06-20T08:43:18.591Z,25.10
2019-06-20T08:45:48.758Z,25.50
2019-06-20T08:48:18.526Z,26.20
2019-06-20T08:50:48.270Z,26.10
2019-06-20T08:53:18.330Z,25.40
2019-06-20T08:55:49.197Z,25.00
2019-06-20T08:58:19.297Z,24.90
2019-06-20T09:00:49.407Z,24.40
2019-06-20T09:03:19.189Z,24.80
2019-06-20T09:05:54.920Z,25.30
2019-06-20T09:08:23.995Z,25.20
2019-06-20T09:10:54.348Z,25.00
2019-06-20T09:13:24.487Z,24.90
2019-06-20T09:15:54.802Z,24.80
2019-06-20T09:18:24.624Z,24.60
2019-06-20T09:20:54.348Z,24.40
2019-06-20T09:23:24.094Z,24.00
2019-06-20T09:25:55.857Z,24.00
2019-06-20T09:28:25.979Z,23.80
2019-06-20T09:30:57.128Z,23.50
2019-06-20T09:33:26.945Z,23.50
2019-06-20T09:35:57.481Z,23.40
2019-06-20T09:38:27.388Z,23.30
2019-06-20T09:40:57.123Z,23.20
2019-06-20T09:43:27.963Z,23.50
2019-06-20T09:45:58.371Z,23.40
2019-06-20T09:48:28.225Z,23.60
2019-06-20T09:50:58.638Z,24.00
2019-06-20T09:53:28.614Z,24.30
2019-06-20T09:55:58.359Z,24.60
2019-06-20T09:58:28.763Z,24.60
2019-06-20T10:00:58.553Z,24.60
2019-06-20T10:03:28.388Z,24.40
2019-06-20T10:05:58.154Z,24.30
2019-06-20T10:08:27.866Z,24.30
2019-06-20T10:10:57.981Z,24.30
2019-06-20T10:13:27.733Z,23.90
2019-06-20T10:15:57.438Z,23.70
2019-06-20T10:18:28.002Z,23.40
2019-06-20T10:20:57.804Z,23.50
2019-06-20T10:23:27.908Z,23.70
2019-06-20T10:25:58.224Z,23.70
2019-06-20T10:28:28.275Z,23.70
2019-06-20T10:30:58.278Z,23.90
2019-06-20T10:33:28.077Z,24.20
2019-06-20T10:35:57.993Z,24.30
2019-06-20T10:38:28.066Z,24.60
2019-06-20T10:41:00.029Z,25.00
2019-06-20T10:43:30.043Z,25.00
2019-06-20T10:45:59.828Z,25.20
2019-06-20T10:48:30.009Z,25.30
2019-06-20T10:51:17.502Z,25.40
2019-06-20T10:53:48.987Z,25.40
2019-06-20T10:56:19.154Z,25.30
2019-06-20T10:58:48.887Z,25.50
2019-06-20T11:01:18.761Z,25.70
2019-06-20T11:03:49.901Z,25.40
2019-06-20T11:06:19.840Z,25.00
2019-06-20T11:08:49.617Z,25.00
2019-06-20T11:11:19.580Z,25.00
2019-06-20T11:13:49.384Z,25.20
2019-06-20T11:16:19.180Z,25.00
2019-06-20T11:18:48.966Z,25.00
2019-06-20T11:21:18.790Z,24.80
2019-06-20T11:23:48.882Z,24.60
2019-06-20T11:26:19.023Z,24.60
2019-06-20T11:28:49.074Z,24.50
2019-06-20T11:31:19.270Z,24.10
2019-06-20T11:33:49.195Z,23.90
2019-06-20T11:36:19.350Z,23.90
2019-06-20T11:38:49.455Z,24.20
2019-06-20T11:41:19.351Z,24.50
2019-06-20T11:43:49.130Z,25.10
2019-06-20T11:46:19.217Z,25.30
2019-06-20T11:48:49.024Z,25.30
2019-06-20T11:51:18.991Z,25.40
2019-06-20T11:53:48.797Z,25.60
2019-06-20T11:56:19.095Z,25.60
2019-06-20T11:58:49.192Z,25.50
2019-06-20T12:01:32.276Z,25.20
2019-06-20T12:03:51.192Z,25.30
2019-06-20T12:06:21.017Z,25.40
2019-06-20T12:08:50.903Z,25.20
2019-06-20T12:11:20.785Z,25.00
2019-06-20T12:13:50.611Z,25.00
2019-06-20T12:16:20.977Z,25.00
2019-06-20T12:18:50.746Z,25.20
2019-06-20T12:21:20.904Z,25.40
2019-06-20T12:23:51.273Z,25.60
2019-06-20T12:26:21.090Z,25.70
2019-06-20T12:28:51.388Z,25.60
2019-06-20T12:31:21.193Z,25.40
2019-06-20T12:33:51.065Z,25.10
2019-06-20T12:36:42.559Z,24.90
2019-06-20T12:39:12.293Z,24.40
2019-06-20T12:41:43.163Z,24.40
2019-06-20T12:44:13.484Z,24.80
2019-06-20T12:46:44.781Z,25.20
2019-06-20T12:49:15.197Z,25.30
2019-06-20T12:51:47.030Z,25.60
2019-06-20T12:54:17.311Z,25.40
2019-06-20T12:56:48.304Z,25.50
2019-06-20T12:59:18.359Z,25.30
2019-06-20T13:01:49.919Z,25.40
2019-06-20T13:04:19.475Z,25.20
2019-06-20T13:09:50.173Z,25.10
2019-06-20T13:12:19.958Z,25.60
2019-06-20T13:14:49.999Z,25.70
2019-06-20T13:17:20.045Z,25.90
2019-06-20T13:19:50.089Z,25.80
2019-06-20T13:22:20.244Z,25.10
2019-06-20T13:24:50.021Z,25.20
2019-06-20T13:27:20.061Z,25.50
2019-06-20T13:29:50.107Z,25.70
2019-06-20T13:32:20.303Z,25.70
2019-06-20T13:34:50.096Z,25.80
2019-06-20T13:37:20.137Z,26.00
2019-06-20T13:39:53.096Z,26.00
2019-06-20T13:42:25.262Z,25.60
2019-06-20T13:44:55.443Z,25.00
2019-06-20T13:47:25.289Z,24.90
2019-06-20T13:49:55.465Z,24.80
2019-06-20T13:52:25.188Z,24.70
2019-06-20T13:54:55.265Z,24.60
2019-06-20T13:57:25.435Z,24.60
2019-06-20T13:59:55.177Z,24.30
2019-06-20T14:02:24.902Z,24.00
2019-06-20T14:04:54.821Z,23.80
2019-06-20T14:07:27.037Z,23.70
2019-06-20T14:09:57.247Z,23.70
2019-06-20T14:12:27.475Z,23.70
2019-06-20T14:15:00.053Z,23.70
2019-06-20T14:17:29.838Z,23.80
2019-06-20T14:19:59.653Z,24.00
2019-06-20T14:22:29.461Z,24.10
2019-06-20T14:24:59.235Z,24.00
2019-06-20T14:27:51.714Z,24.10
2019-06-20T14:30:21.978Z,24.20
2019-06-20T14:32:51.697Z,24.40
2019-06-20T14:35:21.994Z,24.50
2019-06-20T14:37:52.081Z,24.60
2019-06-20T14:40:22.391Z,24.50
2019-06-20T14:42:52.474Z,24.40
2019-06-20T14:45:22.401Z,24.40
2019-06-20T14:47:52.767Z,24.40
2019-06-20T14:50:23.252Z,24.40
2019-06-20T14:52:54.172Z,24.20
2019-06-20T14:55:24.440Z,24.00
2019-06-20T14:57:54.709Z,23.80
2019-06-20T15:00:25.525Z,23.70
2019-06-20T15:02:58.220Z,23.70
2019-06-20T15:05:26.798Z,23.80
2019-06-20T15:07:56.559Z,23.90
2019-06-20T15:10:26.506Z,23.80
2019-06-20T15:12:56.527Z,23.80
2019-06-20T15:15:26.611Z,23.80
2019-06-20T15:17:59.601Z,23.70
2019-06-20T15:20:31.147Z,23.80
2019-06-20T15:23:00.845Z,23.70
2019-06-20T15:25:30.649Z,23.70
2019-06-20T15:28:00.745Z,23.70
2019-06-20T15:30:30.542Z,23.60
2019-06-20T15:33:09.665Z,23.70
2019-06-20T15:35:32.159Z,23.80
2019-06-20T15:38:01.899Z,23.80
2019-06-20T15:40:32.142Z,23.70
2019-06-20T15:43:03.815Z,23.80
2019-06-20T15:45:33.810Z,23.90
2019-06-20T15:48:03.649Z,23.80
2019-06-20T15:50:37.454Z,23.80
2019-06-20T15:53:07.442Z,23.90
2019-06-20T15:55:37.543Z,23.80
2019-06-20T15:58:07.446Z,23.70
2019-06-20T16:00:40.183Z,23.70
2019-06-20T16:03:13.605Z,23.70
2019-06-20T16:05:43.741Z,23.70
2019-06-20T16:08:14.430Z,23.70
2019-06-20T16:10:53.065Z,23.50
2019-06-20T16:13:23.273Z,23.50
2019-06-20T16:15:55.953Z,23.40
2019-06-20T16:18:25.729Z,23.40
2019-06-20T16:20:59.615Z,23.30
2019-06-20T16:23:29.374Z,23.20
2019-06-20T16:26:00.020Z,23.20
2019-06-20T16:28:29.815Z,23.30
2019-06-20T16:31:08.643Z,23.40
2019-06-20T16:33:31.243Z,23.40
2019-06-20T16:36:01.108Z,23.20
2019-06-20T16:38:38.970Z,23.20
2019-06-20T16:41:07.351Z,23.10
2019-06-20T16:43:37.055Z,23.20
2019-06-20T16:46:06.867Z,23.20
2019-06-20T16:48:38.070Z,23.20
2019-06-20T16:51:10.768Z,23.30
2019-06-20T16:53:40.842Z,23.40
2019-06-20T16:56:10.883Z,23.50
2019-06-20T16:58:42.194Z,23.60
2019-06-20T17:01:12.187Z,23.60
2019-06-20T17:03:42.278Z,23.40
2019-06-20T17:06:12.122Z,23.30
2019-06-20T17:08:43.431Z,23.20
2019-06-20T17:11:13.571Z,23.20
2019-06-20T17:13:43.278Z,23.00
2019-06-20T17:16:17.188Z,22.70
2019-06-20T17:18:47.052Z,22.70
2019-06-20T17:21:18.225Z,22.70
2019-06-20T17:23:48.240Z,22.80
2019-06-20T17:26:18.298Z,22.70
2019-06-20T17:28:53.095Z,22.70
2019-06-20T17:31:24.407Z,22.80
2019-06-20T17:33:57.775Z,22.80
2019-06-20T17:36:26.019Z,23.00
2019-06-20T17:38:58.541Z,23.10
2019-06-20T17:41:28.365Z,23.20
2019-06-20T17:43:59.774Z,23.20
2019-06-20T17:46:29.683Z,23.30
2019-06-20T17:48:59.737Z,23.20
2019-06-20T17:51:30.116Z,23.10
2019-06-20T17:54:01.903Z,23.10
2019-06-20T17:56:31.915Z,23.10
2019-06-20T17:59:01.729Z,23.10
2019-06-20T18:01:31.807Z,23.20
2019-06-20T18:04:13.375Z,23.10
2019-06-20T18:06:33.891Z,22.90
2019-06-20T18:09:04.688Z,22.60
2019-06-20T18:11:34.707Z,22.40
2019-06-20T18:14:05.388Z,22.30
2019-06-20T18:16:36.498Z,22.30
2019-06-20T18:19:06.539Z,22.30
2019-06-20T18:21:36.537Z,22.30
2019-06-20T18:24:09.588Z,22.30
2019-06-20T18:26:40.710Z,22.20
2019-06-20T18:29:10.432Z,22.30
2019-06-20T18:31:42.530Z,22.30
2019-06-20T18:34:12.520Z,22.20
2019-06-20T18:36:43.468Z,22.20
2019-06-20T18:39:13.522Z,22.20
2019-06-20T18:41:43.511Z,22.10
2019-06-20T18:44:13.489Z,22.10
2019-06-20T18:46:43.364Z,22.00
2019-06-20T18:49:14.751Z,21.90
2019-06-20T18:51:46.407Z,21.90
2019-06-20T18:54:16.451Z,21.90
2019-06-20T18:56:46.159Z,21.90
2019-06-20T18:59:15.891Z,21.80
2019-06-20T19:01:45.678Z,21.70
2019-06-20T19:04:15.505Z,21.60
2019-06-20T19:06:53.310Z,21.60
2019-06-20T19:09:33.201Z,21.50
2019-06-20T19:12:11.409Z,21.50
2019-06-20T19:16:38.715Z,21.40
2019-06-20T19:18:03.019Z,21.40
2019-06-20T19:20:40.278Z,21.40
2019-06-20T19:29:42.791Z,21.30
2019-06-20T19:35:48.938Z,21.10
2019-06-20T19:38:22.901Z,20.90
2019-06-20T19:41:11.440Z,20.80
2019-06-20T19:43:37.551Z,20.60
2019-06-20T19:46:40.597Z,20.50
2019-06-20T19:49:35.086Z,20.50
2019-06-20T19:52:35.411Z,20.40
2019-06-20T19:55:16.441Z,20.30
2019-06-20T19:57:49.208Z,20.20
2019-06-20T20:00:28.062Z,20.10
2019-06-20T20:03:00.172Z,20.10
2019-06-20T20:05:38.437Z,20.10
2019-06-20T20:08:11.979Z,20.00
2019-06-20T20:10:53.158Z,19.90
2019-06-20T20:13:24.544Z,19.90
2019-06-20T20:16:01.351Z,19.80
2019-06-20T20:18:34.172Z,19.80
2019-06-20T20:21:46.422Z,19.70
2019-06-20T20:27:22.765Z,19.60
2019-06-20T20:29:54.670Z,19.70
2019-06-20T20:33:02.075Z,19.60
2019-06-20T20:35:36.697Z,19.60
2019-06-20T20:51:15.130Z,19.40
2019-06-20T20:53:49.840Z,19.30
2019-06-20T20:56:23.378Z,19.30
2019-06-20T20:59:02.328Z,19.20
2019-06-20T21:01:35.898Z,19.10
2019-06-20T21:04:05.705Z,19.10
2019-06-20T21:06:35.360Z,19.10
2019-06-20T21:09:06.998Z,19.10
2019-06-20T21:11:39.691Z,19.00
2019-06-20T21:14:09.349Z,19.00
2019-06-20T21:16:39.102Z,18.90
2019-06-20T21:19:09.217Z,18.90
2019-06-20T21:21:39.611Z,18.90
2019-06-20T21:24:21.131Z,18.90
2019-06-20T21:26:55.074Z,18.90
2019-06-20T21:29:24.734Z,19.00
2019-06-20T21:31:54.490Z,18.90
2019-06-20T21:34:29.993Z,18.80
2019-06-20T21:37:00.808Z,18.80
2019-06-20T21:39:30.588Z,18.70
2019-06-20T21:42:01.863Z,18.70
2019-06-20T21:44:40.628Z,18.60
2019-06-20T21:47:12.283Z,18.60
2019-06-20T21:49:43.862Z,18.50
2019-06-20T21:52:13.954Z,18.60
2019-06-20T21:54:50.446Z,18.70
2019-06-20T21:57:23.258Z,18.70
2019-06-20T21:59:53.453Z,18.80
2019-06-20T22:02:23.323Z,18.70
2019-06-20T22:04:54.707Z,18.70
2019-06-20T22:07:28.033Z,18.60
2019-06-20T22:09:57.877Z,18.50
2019-06-20T22:12:29.430Z,18.50
2019-06-20T22:15:00.582Z,18.60
2019-06-20T22:17:31.929Z,18.70
2019-06-20T22:20:04.756Z,18.70
2019-06-20T22:22:34.563Z,18.70
2019-06-20T22:25:07.162Z,18.70
2019-06-20T22:27:39.576Z,18.70
2019-06-20T22:30:11.127Z,18.60
2019-06-20T22:32:55.947Z,18.60
2019-06-20T22:35:27.303Z,18.50
2019-06-20T22:37:57.295Z,18.50
2019-06-20T22:40:26.939Z,18.50
2019-06-20T22:42:56.601Z,18.50
2019-06-20T22:45:27.902Z,18.50
2019-06-20T22:47:57.630Z,18.50
2019-06-20T22:50:27.449Z,18.50
2019-06-20T22:52:57.223Z,18.40
2019-06-20T22:55:29.704Z,18.50
2019-06-20T22:57:59.471Z,18.50
2019-06-20T23:00:29.197Z,18.50
2019-06-20T23:02:59.619Z,18.50
2019-06-20T23:05:29.269Z,18.50
2019-06-20T23:07:59.859Z,18.50
2019-06-20T23:10:30.426Z,18.50
2019-06-20T23:13:01.728Z,18.50
2019-06-20T23:15:31.631Z,18.60
2019-06-20T23:18:01.401Z,18.60
2019-06-20T23:20:31.119Z,18.60
2019-06-20T23:23:02.331Z,18.60
2019-06-20T23:25:36.155Z,18.70
2019-06-20T23:28:08.404Z,18.80
2019-06-20T23:30:40.191Z,18.80
2019-06-20T23:33:09.864Z,18.80
2019-06-20T23:35:41.382Z,18.80
2019-06-20T23:38:11.121Z,18.90
2019-06-20T23:40:40.839Z,18.90
2019-06-20T23:43:10.481Z,18.90
2019-06-20T23:45:40.231Z,18.90
2019-06-20T23:48:09.932Z,18.90
2019-06-20T23:50:39.669Z,18.90
2019-06-20T23:53:10.943Z,18.90
2019-06-20T23:55:40.646Z,18.90
2019-06-20T23:58:10.285Z,18.90
